Time,TemperatureF,DewpointF,PressureIn,WindDirection,WindDirectionDegrees,WindSpeedMPH,WindSpeedGustMPH,Humidity,HourlyPrecipIn,Conditions,Clouds,dailyrainin,SoftwareType,DateUTC
2013-04-15 00:00:00,65.3,65.3,29.81,North,7,0.0,1.0,100,0.00,,---,0.77,VWS V14.01,2013-04-15 04:00:00,
2013-04-15 00:30:00,65.2,65.2,29.79,North,7,0.0,0.0,100,0.00,,---,0.00,VWS V14.01,2013-04-15 04:30:00,
2013-04-15 01:00:00,66.0,66.0,29.77,ESE,114,0.0,4.0,100,0.00,,---,0.00,VWS V14.01,2013-04-15 05:00:00,
2013-04-15 01:30:00,66.4,66.4,29.75,SE,134,1.0,6.0,100,0.00,,---,0.00,VWS V14.01,2013-04-15 05:30:00,
2013-04-15 02:00:00,66.3,66.3,29.76,West,267,0.0,8.0,100,0.00,,---,0.00,VWS V14.01,2013-04-15 06:00:00,
2013-04-15 02:30:00,66.0,66.0,29.79,West,275,0.0,3.0,100,0.00,,---,0.00,VWS V14.01,2013-04-15 06:30:00,
2013-04-15 03:00:00,65.5,65.5,29.82,West,267,0.0,3.0,100,0.00,,---,0.00,VWS V14.01,2013-04-15 07:00:00,
2013-04-15 03:30:00,64.8,64.8,29.81,West,267,0.0,0.0,100,0.00,,---,0.00,VWS V14.01,2013-04-15 07:30:00,
2013-04-15 04:00:00,63.9,63.9,29.82,West,267,0.0,0.0,100,0.00,,---,0.00,VWS V14.01,2013-04-15 08:00:00,
2013-04-15 04:30:00,62.9,62.9,29.83,West,267,0.0,0.0,100,0.00,,---,0.00,VWS V14.01,2013-04-15 08:30:00,
2013-04-15 05:00:00,62.1,62.1,29.83,West,267,0.0,0.0,100,0.00,,---,0.00,VWS V14.01,2013-04-15 09:00:00,
2013-04-15 05:30:00,61.6,61.6,29.84,West,267,0.0,0.0,100,0.00,,---,0.00,VWS V14.01,2013-04-15 09:30:00,
2013-04-15 06:00:00,61.8,61.8,29.83,West,267,0.0,0.0,100,0.00,,---,0.00,VWS V14.01,2013-04-15 10:00:00,
2013-04-15 06:30:00,61.2,61.2,29.85,West,267,0.0,0.0,100,0.00,,---,0.00,VWS V14.01,2013-04-15 10:30:00,
2013-04-15 07:00:00,61.2,61.2,29.86,West,267,0.0,0.0,100,0.00,,---,0.00,VWS V14.01,2013-04-15 11:00:00,
2013-04-15 07:30:00,62.0,62.0,29.88,West,267,0.0,0.0,100,0.00,,---,0.00,VWS V14.01,2013-04-15 11:30:00,
2013-04-15 08:00:00,62.3,62.3,29.89,West,267,0.0,0.0,100,0.00,,---,0.00,VWS V14.01,2013-04-15 12:00:00,
2013-04-15 08:30:00,64.2,64.2,29.90,North,11,0.0,0.0,100,0.00,,---,0.00,VWS V14.01,2013-04-15 12:30:00,
2013-04-15 09:00:00,65.3,65.3,29.91,East,79,0.0,0.0,100,0.01,,---,0.01,VWS V14.01,2013-04-15 13:00:00,
2013-04-15 09:30:00,66.8,66.8,29.92,North,0,0.0,1.0,100,0.01,,---,0.01,VWS V14.01,2013-04-15 13:30:00,
2013-04-15 10:00:00,68.1,68.1,29.92,West,281,0.0,2.0,100,0.01,,---,0.01,VWS V14.01,2013-04-15 14:00:00,
2013-04-15 10:30:00,70.9,67.2,29.93,WSW,253,0.0,2.0,88,0.00,,---,0.01,VWS V14.01,2013-04-15 14:30:00,
2013-04-15 11:00:00,74.9,64.1,29.93,SSE,162,0.0,2.0,69,0.00,,---,0.01,VWS V14.01,2013-04-15 15:00:00,
2013-04-15 11:30:00,78.5,63.0,29.93,SE,136,0.0,0.0,59,0.00,,---,0.01,VWS V14.01,2013-04-15 15:30:00,
2013-04-15 12:00:00,80.3,63.2,29.93,West,268,0.0,5.0,56,0.00,,---,0.01,VWS V14.01,2013-04-15 16:00:00,
2013-04-15 12:30:00,81.1,63.4,29.93,WSW,257,0.0,7.0,55,0.00,,---,0.01,VWS V14.01,2013-04-15 16:30:00,
2013-04-15 13:00:00,82.2,63.4,29.93,SW,217,0.0,5.0,53,0.00,,---,0.01,VWS V14.01,2013-04-15 17:00:00,
2013-04-15 13:30:00,83.8,65.4,29.93,North,353,0.0,7.0,54,0.00,,---,0.01,VWS V14.01,2013-04-15 17:30:00,
2013-04-15 14:00:00,78.6,67.6,29.93,NNW,343,1.0,6.0,69,0.00,,---,0.01,VWS V14.01,2013-04-15 18:00:00,
2013-04-15 14:30:00,76.7,66.6,29.93,North,0,0.0,4.0,71,0.00,,---,0.01,VWS V14.01,2013-04-15 18:30:00,
2013-04-15 15:00:00,75.6,66.3,29.94,NNW,344,5.0,7.0,73,0.00,,---,0.01,VWS V14.01,2013-04-15 19:00:00,
2013-04-15 15:30:00,74.6,65.4,29.93,North,352,0.0,5.0,73,0.00,,---,0.01,VWS V14.01,2013-04-15 19:30:00,
2013-04-15 16:00:00,74.0,65.6,29.93,WNW,292,0.0,6.0,75,0.00,,---,0.01,VWS V14.01,2013-04-15 20:00:00,
2013-04-15 16:30:00,73.0,65.0,29.93,North,353,0.0,3.0,76,0.00,,---,0.01,VWS V14.01,2013-04-15 20:30:00,
2013-04-15 17:00:00,72.5,64.5,29.94,NNW,336,0.0,5.0,76,0.00,,---,0.01,VWS V14.01,2013-04-15 21:00:00,
2013-04-15 17:30:00,71.8,64.6,29.94,North,6,0.0,5.0,78,0.00,,---,0.01,VWS V14.01,2013-04-15 21:30:00,
2013-04-15 18:00:00,70.8,63.6,29.94,North,0,0.0,3.0,78,0.00,,---,0.01,VWS V14.01,2013-04-15 22:00:00,
2013-04-15 18:30:00,69.9,63.8,29.96,North,349,0.0,3.0,81,0.00,,---,0.01,VWS V14.01,2013-04-15 22:30:00,
2013-04-15 19:00:00,68.9,63.2,29.95,North,356,0.0,4.0,82,0.00,,---,0.01,VWS V14.01,2013-04-15 23:00:00,
2013-04-15 19:30:00,68.4,63.4,29.96,North,349,0.0,5.0,84,0.00,,---,0.01,VWS V14.01,2013-04-15 23:30:00,
2013-04-15 20:00:00,67.4,63.4,29.97,North,349,0.0,0.0,87,0.00,,---,0.01,VWS V14.01,2013-04-16 00:00:00,
2013-04-15 20:30:00,66.8,63.8,29.97,North,357,0.0,1.0,90,0.00,,---,0.01,VWS V14.01,2013-04-16 00:30:00,
2013-04-15 21:00:00,66.4,64.3,29.98,North,357,0.0,0.0,93,0.00,,---,0.01,VWS V14.01,2013-04-16 01:00:00,
2013-04-15 21:30:00,66.0,64.2,29.99,North,357,0.0,0.0,94,0.00,,---,0.01,VWS V14.01,2013-04-16 01:30:00,
2013-04-15 22:00:00,66.1,64.9,30.01,North,357,0.0,1.0,96,0.00,,---,0.01,VWS V14.01,2013-04-16 02:00:00,
2013-04-15 22:30:00,66.0,65.1,30.03,North,357,0.0,3.0,97,0.00,,---,0.01,VWS V14.01,2013-04-16 02:30:00,
2013-04-15 23:00:00,65.2,64.6,30.04,North,350,0.0,0.0,98,0.00,,---,0.01,VWS V14.01,2013-04-16 03:00:00,
2013-04-15 23:30:00,65.2,64.6,30.04,North,350,0.0,0.0,98,0.00,,---,0.01,VWS V14.01,2013-04-16 03:30:00,